sensor_id;sensor_type;location;lat;lon;timestamp;temperature;humidity
47414;DHT22;33163;0.000;0.000;2023-08-07T00:01:16;21.00;69.90
47414;DHT22;33163;0.000;0.000;2023-08-07T00:03:43;21.00;69.80
47414;DHT22;33163;0.000;0.000;2023-08-07T00:06:11;21.00;69.90
47414;DHT22;33163;0.000;0.000;2023-08-07T00:08:38;21.00;69.80
47414;DHT22;33163;0.000;0.000;2023-08-07T00:11:05;21.00;69.90
47414;DHT22;33163;0.000;0.000;2023-08-07T00:13:32;21.00;69.80
47414;DHT22;33163;0.000;0.000;2023-08-07T00:15:59;20.90;69.60
47414;DHT22;33163;0.000;0.000;2023-08-07T00:18:26;21.00;69.60
47414;DHT22;33163;0.000;0.000;2023-08-07T00:20:52;21.00;69.70
47414;DHT22;33163;0.000;0.000;2023-08-07T00:23:20;21.00;69.90
47414;DHT22;33163;0.000;0.000;2023-08-07T00:25:47;21.00;69.80
47414;DHT22;33163;0.000;0.000;2023-08-07T00:28:14;21.00;69.70
47414;DHT22;33163;0.000;0.000;2023-08-07T00:30:41;21.00;69.70
47414;DHT22;33163;0.000;0.000;2023-08-07T00:33:07;21.00;69.70
47414;DHT22;33163;0.000;0.000;2023-08-07T00:35:34;21.00;69.80
47414;DHT22;33163;0.000;0.000;2023-08-07T00:38:01;21.00;69.70
47414;DHT22;33163;0.000;0.000;2023-08-07T00:40:36;20.90;69.70
47414;DHT22;33163;0.000;0.000;2023-08-07T00:43:02;21.00;69.70
47414;DHT22;33163;0.000;0.000;2023-08-07T00:45:29;20.90;69.70
47414;DHT22;33163;0.000;0.000;2023-08-07T00:47:58;20.90;69.60
47414;DHT22;33163;0.000;0.000;2023-08-07T00:50:24;20.90;69.60
47414;DHT22;33163;0.000;0.000;2023-08-07T00:52:51;20.90;69.60
47414;DHT22;33163;0.000;0.000;2023-08-07T00:55:18;20.90;69.60
47414;DHT22;33163;0.000;0.000;2023-08-07T00:57:46;20.90;69.70
47414;DHT22;33163;0.000;0.000;2023-08-07T01:00:14;20.90;69.60
47414;DHT22;33163;0.000;0.000;2023-08-07T01:02:41;20.90;69.50
47414;DHT22;33163;0.000;0.000;2023-08-07T01:05:09;20.90;69.50
47414;DHT22;33163;0.000;0.000;2023-08-07T01:07:36;20.90;69.60
47414;DHT22;33163;0.000;0.000;2023-08-07T01:10:03;20.90;69.60
47414;DHT22;33163;0.000;0.000;2023-08-07T01:12:36;20.90;69.40
47414;DHT22;33163;0.000;0.000;2023-08-07T01:15:13;20.90;69.50
47414;DHT22;33163;0.000;0.000;2023-08-07T01:17:42;20.90;69.40
47414;DHT22;33163;0.000;0.000;2023-08-07T01:20:10;20.90;69.40
47414;DHT22;33163;0.000;0.000;2023-08-07T01:22:39;20.90;69.40
47414;DHT22;33163;0.000;0.000;2023-08-07T01:25:06;20.90;69.40
47414;DHT22;33163;0.000;0.000;2023-08-07T01:27:37;20.90;69.30
47414;DHT22;33163;0.000;0.000;2023-08-07T01:30:14;20.90;69.30
47414;DHT22;33163;0.000;0.000;2023-08-07T01:32:49;20.90;69.20
47414;DHT22;33163;0.000;0.000;2023-08-07T01:35:22;20.90;69.10
47414;DHT22;33163;0.000;0.000;2023-08-07T01:37:54;20.90;69.20
47414;DHT22;33163;0.000;0.000;2023-08-07T01:40:22;20.90;69.00
47414;DHT22;33163;0.000;0.000;2023-08-07T01:42:50;20.90;69.00
47414;DHT22;33163;0.000;0.000;2023-08-07T01:45:23;20.90;69.00
47414;DHT22;33163;0.000;0.000;2023-08-07T01:47:50;20.90;69.00
47414;DHT22;33163;0.000;0.000;2023-08-07T01:50:18;20.90;69.10
47414;DHT22;33163;0.000;0.000;2023-08-07T01:52:44;20.90;69.10
47414;DHT22;33163;0.000;0.000;2023-08-07T01:55:12;20.90;69.10
47414;DHT22;33163;0.000;0.000;2023-08-07T01:57:39;20.90;69.10
47414;DHT22;33163;0.000;0.000;2023-08-07T02:00:07;20.90;68.80
47414;DHT22;33163;0.000;0.000;2023-08-07T02:02:34;20.90;69.00
47414;DHT22;33163;0.000;0.000;2023-08-07T02:05:01;20.80;68.90
47414;DHT22;33163;0.000;0.000;2023-08-07T02:07:29;20.80;68.60
47414;DHT22;33163;0.000;0.000;2023-08-07T02:09:56;20.90;68.90
47414;DHT22;33163;0.000;0.000;2023-08-07T02:12:24;20.90;68.90
47414;DHT22;33163;0.000;0.000;2023-08-07T02:14:52;20.80;68.80
47414;DHT22;33163;0.000;0.000;2023-08-07T02:17:20;20.90;68.70
47414;DHT22;33163;0.000;0.000;2023-08-07T02:19:48;20.90;68.90
47414;DHT22;33163;0.000;0.000;2023-08-07T02:22:14;20.90;68.80
47414;DHT22;33163;0.000;0.000;2023-08-07T02:24:41;20.80;68.60
47414;DHT22;33163;0.000;0.000;2023-08-07T02:27:08;20.80;68.50
47414;DHT22;33163;0.000;0.000;2023-08-07T02:29:36;20.80;68.60
47414;DHT22;33163;0.000;0.000;2023-08-07T02:32:04;20.80;68.70
47414;DHT22;33163;0.000;0.000;2023-08-07T02:34:30;20.80;68.60
47414;DHT22;33163;0.000;0.000;2023-08-07T02:36:57;20.80;68.60
47414;DHT22;33163;0.000;0.000;2023-08-07T02:39:25;20.80;68.50
47414;DHT22;33163;0.000;0.000;2023-08-07T02:41:51;20.80;68.40
47414;DHT22;33163;0.000;0.000;2023-08-07T02:44:18;20.80;68.60
47414;DHT22;33163;0.000;0.000;2023-08-07T02:46:46;20.80;68.70
47414;DHT22;33163;0.000;0.000;2023-08-07T02:49:13;20.80;68.70
47414;DHT22;33163;0.000;0.000;2023-08-07T02:51:40;20.90;68.80
47414;DHT22;33163;0.000;0.000;2023-08-07T02:54:07;20.80;68.60
47414;DHT22;33163;0.000;0.000;2023-08-07T02:56:33;20.80;68.60
47414;DHT22;33163;0.000;0.000;2023-08-07T02:59:00;20.80;68.70
47414;DHT22;33163;0.000;0.000;2023-08-07T03:01:27;20.90;68.80
47414;DHT22;33163;0.000;0.000;2023-08-07T03:03:56;20.80;68.70
47414;DHT22;33163;0.000;0.000;2023-08-07T03:06:23;20.80;68.80
47414;DHT22;33163;0.000;0.000;2023-08-07T03:08:50;20.80;68.80
47414;DHT22;33163;0.000;0.000;2023-08-07T03:11:16;20.80;68.90
47414;DHT22;33163;0.000;0.000;2023-08-07T03:13:43;20.80;68.80
47414;DHT22;33163;0.000;0.000;2023-08-07T03:16:10;20.80;68.90
47414;DHT22;33163;0.000;0.000;2023-08-07T03:18:37;20.80;69.00
47414;DHT22;33163;0.000;0.000;2023-08-07T03:21:05;20.80;69.00
47414;DHT22;33163;0.000;0.000;2023-08-07T03:23:32;20.80;69.10
47414;DHT22;33163;0.000;0.000;2023-08-07T03:26:03;20.80;69.30
47414;DHT22;33163;0.000;0.000;2023-08-07T03:28:30;20.80;69.20
47414;DHT22;33163;0.000;0.000;2023-08-07T03:30:56;20.80;69.30
47414;DHT22;33163;0.000;0.000;2023-08-07T03:33:23;20.80;69.30
47414;DHT22;33163;0.000;0.000;2023-08-07T03:35:50;20.80;69.30
47414;DHT22;33163;0.000;0.000;2023-08-07T03:38:18;20.80;69.30
47414;DHT22;33163;0.000;0.000;2023-08-07T03:40:45;20.80;69.30
47414;DHT22;33163;0.000;0.000;2023-08-07T03:43:12;20.80;69.50
47414;DHT22;33163;0.000;0.000;2023-08-07T03:45:39;20.80;69.50
47414;DHT22;33163;0.000;0.000;2023-08-07T03:48:06;20.80;69.50
47414;DHT22;33163;0.000;0.000;2023-08-07T03:50:33;20.80;69.40
47414;DHT22;33163;0.000;0.000;2023-08-07T03:53:02;20.80;69.50
47414;DHT22;33163;0.000;0.000;2023-08-07T03:55:31;20.80;69.50
47414;DHT22;33163;0.000;0.000;2023-08-07T03:57:58;20.80;69.50
47414;DHT22;33163;0.000;0.000;2023-08-07T04:00:24;20.80;69.60
47414;DHT22;33163;0.000;0.000;2023-08-07T04:02:51;20.80;69.60
47414;DHT22;33163;0.000;0.000;2023-08-07T04:05:18;20.80;70.30
47414;DHT22;33163;0.000;0.000;2023-08-07T04:07:43;20.80;69.60
47414;DHT22;33163;0.000;0.000;2023-08-07T04:10:10;20.80;69.70
47414;DHT22;33163;0.000;0.000;2023-08-07T04:12:38;20.80;69.60
47414;DHT22;33163;0.000;0.000;2023-08-07T04:15:06;20.80;69.60
47414;DHT22;33163;0.000;0.000;2023-08-07T04:17:34;20.80;69.70
47414;DHT22;33163;0.000;0.000;2023-08-07T04:20:02;20.80;69.60
47414;DHT22;33163;0.000;0.000;2023-08-07T04:22:29;20.70;69.60
47414;DHT22;33163;0.000;0.000;2023-08-07T04:24:56;20.80;69.60
47414;DHT22;33163;0.000;0.000;2023-08-07T04:27:23;20.80;69.60
47414;DHT22;33163;0.000;0.000;2023-08-07T04:29:51;20.70;69.50
47414;DHT22;33163;0.000;0.000;2023-08-07T04:32:18;20.80;69.60
47414;DHT22;33163;0.000;0.000;2023-08-07T04:34:44;20.80;69.50
47414;DHT22;33163;0.000;0.000;2023-08-07T04:37:11;20.80;69.60
47414;DHT22;33163;0.000;0.000;2023-08-07T04:39:38;20.80;69.60
47414;DHT22;33163;0.000;0.000;2023-08-07T04:42:05;20.70;69.40
47414;DHT22;33163;0.000;0.000;2023-08-07T04:44:32;20.80;69.50
47414;DHT22;33163;0.000;0.000;2023-08-07T04:47:00;20.80;69.60
47414;DHT22;33163;0.000;0.000;2023-08-07T04:49:26;20.80;69.40
47414;DHT22;33163;0.000;0.000;2023-08-07T04:51:53;20.80;69.50
47414;DHT22;33163;0.000;0.000;2023-08-07T04:54:20;20.70;69.30
47414;DHT22;33163;0.000;0.000;2023-08-07T04:56:46;20.70;69.30
47414;DHT22;33163;0.000;0.000;2023-08-07T04:59:14;20.70;69.30
47414;DHT22;33163;0.000;0.000;2023-08-07T05:01:40;20.70;69.30
47414;DHT22;33163;0.000;0.000;2023-08-07T05:04:08;20.70;69.20
47414;DHT22;33163;0.000;0.000;2023-08-07T05:06:35;20.70;69.10
47414;DHT22;33163;0.000;0.000;2023-08-07T05:09:02;20.70;69.00
47414;DHT22;33163;0.000;0.000;2023-08-07T05:11:29;20.70;69.10
47414;DHT22;33163;0.000;0.000;2023-08-07T05:13:56;20.80;69.20
47414;DHT22;33163;0.000;0.000;2023-08-07T05:16:23;20.70;69.10
47414;DHT22;33163;0.000;0.000;2023-08-07T05:18:50;20.70;69.10
47414;DHT22;33163;0.000;0.000;2023-08-07T05:21:18;20.70;68.90
47414;DHT22;33163;0.000;0.000;2023-08-07T05:23:45;20.70;68.80
47414;DHT22;33163;0.000;0.000;2023-08-07T05:26:13;20.70;68.80
47414;DHT22;33163;0.000;0.000;2023-08-07T05:28:39;20.70;68.80
47414;DHT22;33163;0.000;0.000;2023-08-07T05:31:06;20.70;68.80
47414;DHT22;33163;0.000;0.000;2023-08-07T05:33:33;20.70;68.70
47414;DHT22;33163;0.000;0.000;2023-08-07T05:36:00;20.70;68.80
47414;DHT22;33163;0.000;0.000;2023-08-07T05:38:28;20.70;68.80
47414;DHT22;33163;0.000;0.000;2023-08-07T05:40:54;20.70;68.80
47414;DHT22;33163;0.000;0.000;2023-08-07T05:43:21;20.70;68.70
47414;DHT22;33163;0.000;0.000;2023-08-07T05:45:48;20.70;68.70
47414;DHT22;33163;0.000;0.000;2023-08-07T05:48:15;20.70;68.80
47414;DHT22;33163;0.000;0.000;2023-08-07T05:50:42;20.70;68.80
47414;DHT22;33163;0.000;0.000;2023-08-07T05:53:09;20.70;68.70
47414;DHT22;33163;0.000;0.000;2023-08-07T05:55:40;20.70;68.70
47414;DHT22;33163;0.000;0.000;2023-08-07T05:58:07;20.70;68.50
47414;DHT22;33163;0.000;0.000;2023-08-07T06:00:34;20.70;68.50
47414;DHT22;33163;0.000;0.000;2023-08-07T06:03:01;20.70;68.50
47414;DHT22;33163;0.000;0.000;2023-08-07T06:05:28;20.70;68.60
47414;DHT22;33163;0.000;0.000;2023-08-07T06:07:55;20.70;68.60
47414;DHT22;33163;0.000;0.000;2023-08-07T06:10:22;20.70;68.60
47414;DHT22;33163;0.000;0.000;2023-08-07T06:12:50;20.70;68.80
47414;DHT22;33163;0.000;0.000;2023-08-07T06:15:17;20.70;68.60
47414;DHT22;33163;0.000;0.000;2023-08-07T06:17:43;20.70;68.50
47414;DHT22;33163;0.000;0.000;2023-08-07T06:20:10;20.80;68.40
47414;DHT22;33163;0.000;0.000;2023-08-07T06:22:39;20.70;68.30
47414;DHT22;33163;0.000;0.000;2023-08-07T06:25:07;20.80;68.40
47414;DHT22;33163;0.000;0.000;2023-08-07T06:27:34;20.70;68.40
47414;DHT22;33163;0.000;0.000;2023-08-07T06:30:02;20.80;68.20
47414;DHT22;33163;0.000;0.000;2023-08-07T06:32:29;20.70;68.10
47414;DHT22;33163;0.000;0.000;2023-08-07T06:34:56;20.80;68.00
47414;DHT22;33163;0.000;0.000;2023-08-07T06:37:22;20.80;68.00
47414;DHT22;33163;0.000;0.000;2023-08-07T06:39:49;20.80;67.90
47414;DHT22;33163;0.000;0.000;2023-08-07T06:42:16;20.80;67.80
47414;DHT22;33163;0.000;0.000;2023-08-07T06:44:43;20.80;67.90
47414;DHT22;33163;0.000;0.000;2023-08-07T06:47:11;20.80;67.80
47414;DHT22;33163;0.000;0.000;2023-08-07T06:49:38;20.80;67.90
47414;DHT22;33163;0.000;0.000;2023-08-07T06:52:05;20.70;67.80
47414;DHT22;33163;0.000;0.000;2023-08-07T06:54:32;20.80;67.80
47414;DHT22;33163;0.000;0.000;2023-08-07T06:56:59;20.80;67.80
47414;DHT22;33163;0.000;0.000;2023-08-07T06:59:25;20.70;67.60
47414;DHT22;33163;0.000;0.000;2023-08-07T07:01:52;20.80;67.70
47414;DHT22;33163;0.000;0.000;2023-08-07T07:04:20;20.80;67.50
47414;DHT22;33163;0.000;0.000;2023-08-07T07:06:47;20.80;67.20
47414;DHT22;33163;0.000;0.000;2023-08-07T07:09:14;20.90;66.90
47414;DHT22;33163;0.000;0.000;2023-08-07T07:11:42;20.90;66.70
47414;DHT22;33163;0.000;0.000;2023-08-07T07:14:09;20.90;66.50
47414;DHT22;33163;0.000;0.000;2023-08-07T07:16:36;20.90;66.70
47414;DHT22;33163;0.000;0.000;2023-08-07T07:19:04;20.80;66.70
47414;DHT22;33163;0.000;0.000;2023-08-07T07:21:33;20.80;66.90
47414;DHT22;33163;0.000;0.000;2023-08-07T07:24:00;20.80;66.90
47414;DHT22;33163;0.000;0.000;2023-08-07T07:26:26;20.90;66.80
47414;DHT22;33163;0.000;0.000;2023-08-07T07:28:53;20.90;66.80
47414;DHT22;33163;0.000;0.000;2023-08-07T07:31:20;20.90;66.50
47414;DHT22;33163;0.000;0.000;2023-08-07T07:33:47;21.00;66.30
47414;DHT22;33163;0.000;0.000;2023-08-07T07:36:15;21.00;66.10
47414;DHT22;33163;0.000;0.000;2023-08-07T07:38:45;21.00;66.10
47414;DHT22;33163;0.000;0.000;2023-08-07T07:41:13;21.10;66.40
47414;DHT22;33163;0.000;0.000;2023-08-07T07:43:40;21.10;66.10
47414;DHT22;33163;0.000;0.000;2023-08-07T07:46:06;21.10;66.10
47414;DHT22;33163;0.000;0.000;2023-08-07T07:48:33;21.10;66.10
47414;DHT22;33163;0.000;0.000;2023-08-07T07:51:00;21.10;66.10
47414;DHT22;33163;0.000;0.000;2023-08-07T07:53:27;21.20;66.00
47414;DHT22;33163;0.000;0.000;2023-08-07T07:55:55;21.20;65.90
47414;DHT22;33163;0.000;0.000;2023-08-07T07:58:22;21.20;66.00
47414;DHT22;33163;0.000;0.000;2023-08-07T08:00:49;21.20;65.90
47414;DHT22;33163;0.000;0.000;2023-08-07T08:03:19;21.20;65.60
47414;DHT22;33163;0.000;0.000;2023-08-07T08:05:48;21.20;65.80
47414;DHT22;33163;0.000;0.000;2023-08-07T08:08:15;21.20;65.70
47414;DHT22;33163;0.000;0.000;2023-08-07T08:10:42;21.10;65.70
47414;DHT22;33163;0.000;0.000;2023-08-07T08:13:11;21.20;65.80
47414;DHT22;33163;0.000;0.000;2023-08-07T08:15:38;21.10;65.90
47414;DHT22;33163;0.000;0.000;2023-08-07T08:18:04;21.20;65.60
47414;DHT22;33163;0.000;0.000;2023-08-07T08:20:31;21.20;65.60
47414;DHT22;33163;0.000;0.000;2023-08-07T08:22:59;21.20;65.50
47414;DHT22;33163;0.000;0.000;2023-08-07T08:25:26;21.20;65.40
47414;DHT22;33163;0.000;0.000;2023-08-07T08:27:53;21.30;65.30
47414;DHT22;33163;0.000;0.000;2023-08-07T08:30:21;21.30;65.40
47414;DHT22;33163;0.000;0.000;2023-08-07T08:32:48;21.30;65.20
47414;DHT22;33163;0.000;0.000;2023-08-07T08:35:14;21.30;65.10
47414;DHT22;33163;0.000;0.000;2023-08-07T08:37:41;21.30;65.00
47414;DHT22;33163;0.000;0.000;2023-08-07T08:40:09;21.40;65.00
47414;DHT22;33163;0.000;0.000;2023-08-07T08:42:39;21.40;65.00
47414;DHT22;33163;0.000;0.000;2023-08-07T08:45:08;21.30;64.90
47414;DHT22;33163;0.000;0.000;2023-08-07T08:47:39;21.40;65.00
47414;DHT22;33163;0.000;0.000;2023-08-07T08:50:07;21.40;64.80
47414;DHT22;33163;0.000;0.000;2023-08-07T08:52:37;21.40;64.80
47414;DHT22;33163;0.000;0.000;2023-08-07T08:55:04;21.40;64.80
47414;DHT22;33163;0.000;0.000;2023-08-07T08:57:33;21.30;65.00
47414;DHT22;33163;0.000;0.000;2023-08-07T09:00:00;21.40;64.80
47414;DHT22;33163;0.000;0.000;2023-08-07T09:02:30;21.30;64.70
47414;DHT22;33163;0.000;0.000;2023-08-07T09:04:59;21.30;64.70
47414;DHT22;33163;0.000;0.000;2023-08-07T09:07:27;21.40;64.70
47414;DHT22;33163;0.000;0.000;2023-08-07T09:09:55;21.30;64.50
47414;DHT22;33163;0.000;0.000;2023-08-07T09:12:26;21.40;64.80
47414;DHT22;33163;0.000;0.000;2023-08-07T09:14:57;21.40;64.60
47414;DHT22;33163;0.000;0.000;2023-08-07T09:17:24;21.40;64.60
47414;DHT22;33163;0.000;0.000;2023-08-07T09:19:53;21.30;64.70
47414;DHT22;33163;0.000;0.000;2023-08-07T09:22:21;21.40;64.70
47414;DHT22;33163;0.000;0.000;2023-08-07T09:24:48;21.40;64.30
47414;DHT22;33163;0.000;0.000;2023-08-07T09:27:15;21.40;64.30
47414;DHT22;33163;0.000;0.000;2023-08-07T09:29:43;21.50;64.10
47414;DHT22;33163;0.000;0.000;2023-08-07T09:32:12;21.50;63.80
47414;DHT22;33163;0.000;0.000;2023-08-07T09:34:40;21.50;64.00
47414;DHT22;33163;0.000;0.000;2023-08-07T09:37:07;21.50;63.80
47414;DHT22;33163;0.000;0.000;2023-08-07T09:39:36;21.50;63.80
47414;DHT22;33163;0.000;0.000;2023-08-07T09:42:03;21.50;63.70
47414;DHT22;33163;0.000;0.000;2023-08-07T09:44:35;21.60;63.70
47414;DHT22;33163;0.000;0.000;2023-08-07T09:47:11;21.60;63.70
47414;DHT22;33163;0.000;0.000;2023-08-07T09:49:39;21.60;63.60
47414;DHT22;33163;0.000;0.000;2023-08-07T09:52:06;21.60;63.50
47414;DHT22;33163;0.000;0.000;2023-08-07T09:54:35;21.60;63.70
47414;DHT22;33163;0.000;0.000;2023-08-07T09:57:03;21.60;63.80
47414;DHT22;33163;0.000;0.000;2023-08-07T09:59:31;21.60;63.60
47414;DHT22;33163;0.000;0.000;2023-08-07T10:02:00;21.60;63.60
47414;DHT22;33163;0.000;0.000;2023-08-07T10:04:27;21.60;63.70
47414;DHT22;33163;0.000;0.000;2023-08-07T10:06:54;21.70;63.60
47414;DHT22;33163;0.000;0.000;2023-08-07T10:09:22;21.70;63.50
47414;DHT22;33163;0.000;0.000;2023-08-07T10:11:50;21.70;63.60
47414;DHT22;33163;0.000;0.000;2023-08-07T10:14:18;21.70;63.50
47414;DHT22;33163;0.000;0.000;2023-08-07T10:16:45;21.80;63.50
47414;DHT22;33163;0.000;0.000;2023-08-07T10:19:12;21.70;63.30
47414;DHT22;33163;0.000;0.000;2023-08-07T10:21:40;21.70;63.30
47414;DHT22;33163;0.000;0.000;2023-08-07T10:24:08;21.70;63.40
47414;DHT22;33163;0.000;0.000;2023-08-07T10:26:35;21.70;63.70
47414;DHT22;33163;0.000;0.000;2023-08-07T10:29:07;21.80;63.50
47414;DHT22;33163;0.000;0.000;2023-08-07T10:31:36;21.80;63.40
47414;DHT22;33163;0.000;0.000;2023-08-07T10:34:05;21.80;63.30
47414;DHT22;33163;0.000;0.000;2023-08-07T10:36:32;21.90;63.20
47414;DHT22;33163;0.000;0.000;2023-08-07T10:39:06;21.90;63.70
47414;DHT22;33163;0.000;0.000;2023-08-07T10:41:38;21.90;63.20
47414;DHT22;33163;0.000;0.000;2023-08-07T10:44:17;21.90;63.20
47414;DHT22;33163;0.000;0.000;2023-08-07T10:46:48;21.90;63.10
47414;DHT22;33163;0.000;0.000;2023-08-07T10:49:32;21.90;63.30
47414;DHT22;33163;0.000;0.000;2023-08-07T10:52:01;22.00;63.20
47414;DHT22;33163;0.000;0.000;2023-08-07T10:54:28;22.00;63.00
47414;DHT22;33163;0.000;0.000;2023-08-07T10:56:55;22.00;63.00
47414;DHT22;33163;0.000;0.000;2023-08-07T10:59:23;22.00;63.30
47414;DHT22;33163;0.000;0.000;2023-08-07T11:01:53;22.00;63.40
47414;DHT22;33163;0.000;0.000;2023-08-07T11:04:22;22.00;63.40
47414;DHT22;33163;0.000;0.000;2023-08-07T11:06:51;22.00;63.40
47414;DHT22;33163;0.000;0.000;2023-08-07T11:09:18;22.10;63.50
47414;DHT22;33163;0.000;0.000;2023-08-07T11:11:46;22.10;63.50
47414;DHT22;33163;0.000;0.000;2023-08-07T11:14:14;22.10;63.50
47414;DHT22;33163;0.000;0.000;2023-08-07T11:16:43;22.10;63.40
47414;DHT22;33163;0.000;0.000;2023-08-07T11:19:12;22.10;63.30
47414;DHT22;33163;0.000;0.000;2023-08-07T11:21:40;22.10;63.10
47414;DHT22;33163;0.000;0.000;2023-08-07T11:24:07;22.10;63.00
47414;DHT22;33163;0.000;0.000;2023-08-07T11:26:34;22.10;63.00
47414;DHT22;33163;0.000;0.000;2023-08-07T11:29:01;22.10;62.90
47414;DHT22;33163;0.000;0.000;2023-08-07T11:31:29;22.10;63.20
47414;DHT22;33163;0.000;0.000;2023-08-07T11:33:58;22.10;63.20
47414;DHT22;33163;0.000;0.000;2023-08-07T11:36:25;22.10;63.10
47414;DHT22;33163;0.000;0.000;2023-08-07T11:38:52;22.10;63.40
47414;DHT22;33163;0.000;0.000;2023-08-07T11:41:19;22.10;63.20
47414;DHT22;33163;0.000;0.000;2023-08-07T11:43:46;22.10;63.40
47414;DHT22;33163;0.000;0.000;2023-08-07T11:46:14;22.10;63.70
47414;DHT22;33163;0.000;0.000;2023-08-07T11:48:42;22.10;63.50
47414;DHT22;33163;0.000;0.000;2023-08-07T11:51:10;22.00;63.50
47414;DHT22;33163;0.000;0.000;2023-08-07T11:53:39;22.00;63.60
47414;DHT22;33163;0.000;0.000;2023-08-07T11:56:08;22.00;63.70
47414;DHT22;33163;0.000;0.000;2023-08-07T11:58:37;22.00;63.70
47414;DHT22;33163;0.000;0.000;2023-08-07T12:01:05;22.00;63.90
47414;DHT22;33163;0.000;0.000;2023-08-07T12:03:34;22.00;63.90
47414;DHT22;33163;0.000;0.000;2023-08-07T12:06:05;22.00;63.90
47414;DHT22;33163;0.000;0.000;2023-08-07T12:08:34;22.00;63.90
47414;DHT22;33163;0.000;0.000;2023-08-07T12:11:02;21.90;64.00
47414;DHT22;33163;0.000;0.000;2023-08-07T12:13:30;21.90;64.20
47414;DHT22;33163;0.000;0.000;2023-08-07T12:16:00;21.90;64.20
47414;DHT22;33163;0.000;0.000;2023-08-07T12:18:28;21.90;64.20
47414;DHT22;33163;0.000;0.000;2023-08-07T12:20:59;21.90;64.20
47414;DHT22;33163;0.000;0.000;2023-08-07T12:23:27;21.80;64.20
47414;DHT22;33163;0.000;0.000;2023-08-07T12:25:55;21.80;64.20
47414;DHT22;33163;0.000;0.000;2023-08-07T12:28:22;21.90;64.30
47414;DHT22;33163;0.000;0.000;2023-08-07T12:30:51;21.80;64.20
47414;DHT22;33163;0.000;0.000;2023-08-07T12:33:18;21.80;64.30
47414;DHT22;33163;0.000;0.000;2023-08-07T12:35:46;21.80;64.40
47414;DHT22;33163;0.000;0.000;2023-08-07T12:38:12;21.80;64.40
47414;DHT22;33163;0.000;0.000;2023-08-07T12:40:41;21.80;64.50
47414;DHT22;33163;0.000;0.000;2023-08-07T12:43:09;21.80;64.50
47414;DHT22;33163;0.000;0.000;2023-08-07T12:45:36;21.80;64.50
47414;DHT22;33163;0.000;0.000;2023-08-07T12:48:03;21.70;64.50
47414;DHT22;33163;0.000;0.000;2023-08-07T12:50:30;21.80;64.50
47414;DHT22;33163;0.000;0.000;2023-08-07T12:52:57;21.80;64.60
47414;DHT22;33163;0.000;0.000;2023-08-07T12:55:24;21.70;64.70
47414;DHT22;33163;0.000;0.000;2023-08-07T12:57:52;21.70;64.90
47414;DHT22;33163;0.000;0.000;2023-08-07T13:00:20;21.70;65.10
47414;DHT22;33163;0.000;0.000;2023-08-07T13:02:48;21.70;65.20
47414;DHT22;33163;0.000;0.000;2023-08-07T13:05:15;21.70;65.30
47414;DHT22;33163;0.000;0.000;2023-08-07T13:07:44;21.70;66.20
47414;DHT22;33163;0.000;0.000;2023-08-07T13:10:12;21.70;65.60
47414;DHT22;33163;0.000;0.000;2023-08-07T13:12:41;21.70;65.70
47414;DHT22;33163;0.000;0.000;2023-08-07T13:15:11;21.70;65.80
47414;DHT22;33163;0.000;0.000;2023-08-07T13:17:40;21.80;66.00
47414;DHT22;33163;0.000;0.000;2023-08-07T13:20:08;21.70;66.00
47414;DHT22;33163;0.000;0.000;2023-08-07T13:22:36;21.80;66.10
47414;DHT22;33163;0.000;0.000;2023-08-07T13:25:03;21.80;66.00
47414;DHT22;33163;0.000;0.000;2023-08-07T13:27:31;21.80;66.10
47414;DHT22;33163;0.000;0.000;2023-08-07T13:29:58;21.80;66.00
47414;DHT22;33163;0.000;0.000;2023-08-07T13:32:25;21.80;66.10
47414;DHT22;33163;0.000;0.000;2023-08-07T13:34:54;21.80;66.00
47414;DHT22;33163;0.000;0.000;2023-08-07T13:37:20;21.90;66.10
47414;DHT22;33163;0.000;0.000;2023-08-07T13:39:47;21.80;66.10
47414;DHT22;33163;0.000;0.000;2023-08-07T13:42:17;21.80;66.00
47414;DHT22;33163;0.000;0.000;2023-08-07T13:44:44;21.80;66.10
47414;DHT22;33163;0.000;0.000;2023-08-07T13:47:11;21.80;66.00
47414;DHT22;33163;0.000;0.000;2023-08-07T13:49:38;21.80;66.50
47414;DHT22;33163;0.000;0.000;2023-08-07T13:52:07;21.80;65.80
47414;DHT22;33163;0.000;0.000;2023-08-07T13:54:34;21.90;65.80
47414;DHT22;33163;0.000;0.000;2023-08-07T13:57:00;21.90;65.80
47414;DHT22;33163;0.000;0.000;2023-08-07T13:59:27;21.80;65.80
47414;DHT22;33163;0.000;0.000;2023-08-07T14:01:54;21.80;65.80
47414;DHT22;33163;0.000;0.000;2023-08-07T14:04:22;21.80;65.80
47414;DHT22;33163;0.000;0.000;2023-08-07T14:06:49;21.90;65.90
47414;DHT22;33163;0.000;0.000;2023-08-07T14:09:17;21.80;65.80
47414;DHT22;33163;0.000;0.000;2023-08-07T14:11:47;21.80;65.90
47414;DHT22;33163;0.000;0.000;2023-08-07T14:14:14;21.80;65.90
47414;DHT22;33163;0.000;0.000;2023-08-07T14:16:40;21.90;65.90
47414;DHT22;33163;0.000;0.000;2023-08-07T14:19:08;21.90;65.90
47414;DHT22;33163;0.000;0.000;2023-08-07T14:21:35;21.80;65.80
47414;DHT22;33163;0.000;0.000;2023-08-07T14:24:02;21.80;65.80
47414;DHT22;33163;0.000;0.000;2023-08-07T14:26:30;21.80;65.90
47414;DHT22;33163;0.000;0.000;2023-08-07T14:28:57;21.80;65.90
47414;DHT22;33163;0.000;0.000;2023-08-07T14:31:23;21.80;65.90
47414;DHT22;33163;0.000;0.000;2023-08-07T14:33:50;21.80;66.00
47414;DHT22;33163;0.000;0.000;2023-08-07T14:36:17;21.80;65.90
47414;DHT22;33163;0.000;0.000;2023-08-07T14:38:44;21.80;65.90
47414;DHT22;33163;0.000;0.000;2023-08-07T14:41:10;21.80;66.00
47414;DHT22;33163;0.000;0.000;2023-08-07T14:43:38;21.80;65.90
47414;DHT22;33163;0.000;0.000;2023-08-07T14:46:05;21.80;66.00
47414;DHT22;33163;0.000;0.000;2023-08-07T14:48:32;21.80;66.00
47414;DHT22;33163;0.000;0.000;2023-08-07T14:50:59;21.80;66.00
47414;DHT22;33163;0.000;0.000;2023-08-07T14:53:25;21.80;66.00
47414;DHT22;33163;0.000;0.000;2023-08-07T14:55:52;21.80;66.10
47414;DHT22;33163;0.000;0.000;2023-08-07T14:58:19;21.80;66.10
47414;DHT22;33163;0.000;0.000;2023-08-07T15:00:47;21.80;66.00
47414;DHT22;33163;0.000;0.000;2023-08-07T15:03:15;21.80;66.00
47414;DHT22;33163;0.000;0.000;2023-08-07T15:05:42;21.80;66.00
47414;DHT22;33163;0.000;0.000;2023-08-07T15:08:09;21.80;65.90
47414;DHT22;33163;0.000;0.000;2023-08-07T15:10:35;21.80;66.00
47414;DHT22;33163;0.000;0.000;2023-08-07T15:13:05;21.80;66.00
47414;DHT22;33163;0.000;0.000;2023-08-07T15:15:32;21.80;65.90
47414;DHT22;33163;0.000;0.000;2023-08-07T15:18:00;21.80;65.90
47414;DHT22;33163;0.000;0.000;2023-08-07T15:20:28;21.80;66.70
47414;DHT22;33163;0.000;0.000;2023-08-07T15:22:56;21.80;66.00
47414;DHT22;33163;0.000;0.000;2023-08-07T15:25:22;21.80;66.00
47414;DHT22;33163;0.000;0.000;2023-08-07T15:27:49;21.80;65.90
47414;DHT22;33163;0.000;0.000;2023-08-07T15:30:17;21.80;66.00
47414;DHT22;33163;0.000;0.000;2023-08-07T15:32:43;21.80;66.00
47414;DHT22;33163;0.000;0.000;2023-08-07T15:35:12;21.70;66.00
47414;DHT22;33163;0.000;0.000;2023-08-07T15:37:38;21.80;66.20
47414;DHT22;33163;0.000;0.000;2023-08-07T15:40:06;21.70;66.10
47414;DHT22;33163;0.000;0.000;2023-08-07T15:42:33;21.80;66.20
47414;DHT22;33163;0.000;0.000;2023-08-07T15:45:00;21.70;66.10
47414;DHT22;33163;0.000;0.000;2023-08-07T15:47:29;21.80;66.20